createdAt,value
2018-09-25T00:01:20.660Z,96.30
2018-09-25T00:04:07.489Z,96.50
2018-09-25T00:06:53.966Z,96.80
2018-09-25T00:09:40.710Z,96.10
2018-09-25T00:12:27.607Z,95.80
2018-09-25T00:15:14.960Z,96.30
2018-09-25T00:18:00.769Z,96.40
2018-09-25T00:20:47.429Z,96.50
2018-09-25T00:23:34.124Z,96.60
2018-09-25T00:26:20.808Z,96.90
2018-09-25T00:29:07.290Z,97.20
2018-09-25T00:31:53.056Z,97.40
2018-09-25T00:34:39.018Z,97.20
2018-09-25T00:37:25.857Z,97.00
2018-09-25T00:40:12.316Z,96.30
2018-09-25T00:42:59.648Z,96.10
2018-09-25T00:45:45.618Z,96.20
2018-09-25T00:48:32.418Z,96.00
2018-09-25T00:51:19.319Z,96.10
2018-09-25T00:54:06.951Z,96.20
2018-09-25T00:56:53.682Z,96.20
2018-09-25T00:59:40.844Z,96.30
2018-09-25T01:02:26.992Z,96.50
2018-09-25T01:05:13.761Z,96.60
2018-09-25T01:08:00.570Z,96.70
2018-09-25T01:10:47.343Z,96.80
2018-09-25T01:13:34.812Z,97.00
2018-09-25T01:16:21.724Z,97.00
2018-09-25T01:19:08.234Z,96.90
2018-09-25T01:21:54.200Z,97.30
2018-09-25T01:24:40.727Z,97.40
2018-09-25T01:27:27.525Z,97.60
2018-09-25T01:30:14.130Z,97.80
2018-09-25T01:33:00.820Z,98.10
2018-09-25T01:35:47.526Z,98.00
2018-09-25T01:38:34.339Z,98.00
2018-09-25T01:41:21.249Z,97.80
2018-09-25T01:44:08.073Z,97.60
2018-09-25T01:46:54.813Z,97.90
2018-09-25T01:49:41.535Z,97.40
2018-09-25T01:52:28.317Z,97.40
2018-09-25T01:55:14.972Z,96.70
2018-09-25T01:58:01.608Z,96.10
2018-09-25T02:00:48.346Z,95.70
2018-09-25T02:03:35.116Z,94.90
2018-09-25T02:06:22.060Z,95.20
2018-09-25T02:09:08.885Z,95.20
2018-09-25T02:11:55.713Z,95.10
2018-09-25T02:14:42.337Z,94.70
2018-09-25T02:17:29.005Z,94.10
2018-09-25T02:20:15.834Z,93.60
2018-09-25T02:23:02.437Z,93.40
2018-09-25T02:25:49.129Z,93.10
2018-09-25T02:28:35.817Z,93.20
2018-09-25T02:31:22.631Z,93.20
2018-09-25T02:34:09.028Z,93.20
2018-09-25T02:36:56.022Z,92.90
2018-09-25T02:39:42.526Z,93.10
2018-09-25T02:42:28.957Z,92.60
2018-09-25T02:45:15.471Z,92.40
2018-09-25T02:48:02.200Z,92.30
2018-09-25T02:50:48.894Z,92.10
2018-09-25T02:53:35.587Z,91.90
2018-09-25T02:56:22.041Z,91.70
2018-09-25T02:59:08.617Z,91.50
2018-09-25T03:01:55.067Z,91.20
2018-09-25T03:04:41.950Z,91.00
2018-09-25T03:07:28.405Z,90.70
2018-09-25T03:10:15.363Z,90.70
2018-09-25T03:13:02.190Z,90.70
2018-09-25T03:15:49.014Z,90.50
2018-09-25T03:18:35.371Z,90.10
2018-09-25T03:21:22.313Z,89.40
2018-09-25T03:24:09.000Z,89.70
2018-09-25T03:26:55.820Z,90.10
2018-09-25T03:29:42.499Z,90.00
2018-09-25T03:32:29.176Z,90.10
2018-09-25T03:35:16.006Z,89.70
2018-09-25T03:38:02.537Z,90.00
2018-09-25T03:40:49.329Z,89.80
2018-09-25T03:43:36.028Z,90.50
2018-09-25T03:46:22.815Z,90.20
2018-09-25T03:49:09.248Z,90.30
2018-09-25T03:51:55.976Z,90.20
2018-09-25T03:54:42.413Z,90.20
2018-09-25T03:57:29.176Z,90.30
2018-09-25T04:00:16.003Z,90.40
2018-09-25T04:03:02.486Z,90.80
2018-09-25T04:05:49.256Z,91.00
2018-09-25T04:08:35.677Z,91.20
2018-09-25T04:11:22.522Z,91.00
2018-09-25T04:14:09.189Z,91.20
2018-09-25T04:16:55.951Z,91.40
2018-09-25T04:19:42.828Z,91.50
2018-09-25T04:22:29.601Z,91.60
2018-09-25T04:25:16.438Z,91.70
2018-09-25T04:28:03.309Z,91.80
2018-09-25T04:30:50.001Z,91.80
2018-09-25T04:33:36.135Z,91.90
2018-09-25T04:36:22.577Z,91.90
2018-09-25T04:39:09.540Z,92.00
2018-09-25T04:41:56.112Z,92.00
2018-09-25T04:44:43.378Z,92.20
2018-09-25T04:47:29.424Z,92.20
2018-09-25T04:50:16.353Z,92.30
2018-09-25T04:53:02.932Z,92.50
2018-09-25T04:55:49.734Z,92.60
2018-09-25T04:58:36.350Z,92.70
2018-09-25T05:01:23.187Z,92.80
2018-09-25T05:04:09.919Z,92.80
2018-09-25T05:06:56.404Z,93.00
2018-09-25T05:09:42.385Z,93.10
2018-09-25T05:12:29.253Z,93.10
2018-09-25T05:15:15.992Z,93.10
2018-09-25T05:18:02.715Z,93.10
2018-09-25T05:20:48.682Z,93.20
2018-09-25T05:23:35.291Z,93.20
2018-09-25T05:26:21.662Z,93.20
2018-09-25T05:29:08.381Z,93.30
2018-09-25T05:31:54.928Z,93.30
2018-09-25T05:34:41.943Z,93.40
2018-09-25T05:37:28.365Z,93.50
2018-09-25T05:40:15.114Z,93.50
2018-09-25T05:43:01.629Z,93.60
2018-09-25T05:45:48.438Z,93.60
2018-09-25T05:48:35.495Z,93.60
2018-09-25T05:51:22.022Z,93.60
2018-09-25T05:54:08.536Z,93.70
2018-09-25T05:56:55.300Z,93.70
2018-09-25T05:59:42.046Z,93.70
2018-09-25T06:02:28.826Z,93.70
2018-09-25T06:05:15.993Z,93.80
2018-09-25T06:08:02.392Z,93.70
2018-09-25T06:10:49.157Z,93.70
2018-09-25T06:13:36.363Z,93.70
2018-09-25T06:16:22.465Z,93.60
2018-09-25T06:19:09.520Z,93.60
2018-09-25T06:21:55.702Z,93.50
2018-09-25T06:24:43.079Z,93.30
2018-09-25T06:27:29.208Z,93.10
2018-09-25T06:30:16.392Z,93.00
2018-09-25T06:33:02.701Z,92.70
2018-09-25T06:38:56.747Z,92.50
2018-09-25T06:41:43.147Z,92.30
2018-09-25T06:44:29.857Z,92.00
2018-09-25T06:47:16.711Z,91.70
2018-09-25T06:50:03.193Z,91.80
2018-09-25T06:52:50.089Z,91.30
2018-09-25T06:55:36.698Z,91.20
2018-09-25T06:58:23.199Z,90.90
2018-09-25T07:01:09.039Z,90.80
2018-09-25T07:03:55.625Z,90.50
2018-09-25T07:06:42.448Z,90.50
2018-09-25T07:09:29.270Z,90.00
2018-09-25T07:12:15.994Z,89.30
2018-09-25T07:15:02.769Z,89.50
2018-09-25T07:17:49.750Z,89.50
2018-09-25T07:20:35.834Z,89.40
2018-09-25T07:23:22.559Z,88.60
2018-09-25T07:26:08.368Z,87.20
2018-09-25T07:28:55.230Z,87.10
2018-09-25T07:31:42.004Z,86.20
2018-09-25T07:34:28.613Z,86.00
2018-09-25T07:37:15.437Z,85.20
2018-09-25T07:40:02.352Z,85.00
2018-09-25T07:42:48.850Z,84.10
2018-09-25T07:45:35.766Z,82.80
2018-09-25T07:48:29.581Z,82.50
2018-09-25T07:51:16.113Z,82.80
2018-09-25T07:54:03.073Z,82.40
2018-09-25T07:56:49.564Z,81.60
2018-09-25T07:59:35.626Z,81.40
2018-09-25T08:02:22.345Z,81.30
2018-09-25T08:05:09.169Z,80.10
2018-09-25T08:07:55.904Z,79.00
2018-09-25T08:10:43.415Z,77.00
2018-09-25T08:13:29.284Z,75.50
2018-09-25T08:16:15.815Z,75.10
2018-09-25T08:19:02.632Z,70.40
2018-09-25T08:21:49.509Z,68.60
2018-09-25T08:24:35.357Z,66.50
2018-09-25T08:27:22.082Z,63.90
2018-09-25T08:30:08.939Z,59.90
2018-09-25T08:32:55.954Z,58.60
2018-09-25T08:35:42.151Z,56.80
2018-09-25T08:38:29.161Z,55.80
2018-09-25T08:41:15.684Z,54.80
2018-09-25T08:44:02.487Z,52.70
2018-09-25T08:46:49.154Z,51.30
2018-09-25T08:49:35.725Z,49.80
2018-09-25T08:52:21.501Z,49.60
2018-09-25T08:55:07.345Z,48.80
2018-09-25T08:57:54.169Z,46.90
2018-09-25T09:00:40.906Z,46.10
2018-09-25T09:03:27.461Z,45.40
2018-09-25T09:06:13.336Z,45.40
2018-09-25T09:08:59.568Z,44.30
2018-09-25T09:11:46.457Z,44.70
2018-09-25T09:14:33.186Z,41.60
2018-09-25T09:17:19.766Z,41.60
2018-09-25T09:20:06.671Z,41.30
2018-09-25T09:22:53.455Z,41.50
2018-09-25T09:25:40.113Z,40.50
2018-09-25T09:28:26.681Z,39.50
2018-09-25T09:31:12.546Z,40.80
2018-09-25T09:33:59.109Z,40.90
2018-09-25T09:36:45.934Z,40.50
2018-09-25T09:39:32.743Z,41.30
2018-09-25T09:42:19.531Z,42.30
2018-09-25T09:45:06.665Z,43.80
2018-09-25T09:47:52.865Z,44.50
2018-09-25T09:50:39.561Z,44.40
2018-09-25T09:53:26.190Z,45.40
2018-09-25T09:56:12.902Z,46.00
2018-09-25T09:59:00.212Z,46.70
2018-09-25T10:01:46.219Z,47.40
2018-09-25T10:04:33.648Z,47.80
2018-09-25T10:07:19.881Z,47.00
2018-09-25T10:10:07.459Z,48.10
2018-09-25T10:12:53.554Z,46.90
2018-09-25T10:15:40.884Z,48.00
2018-09-25T10:18:27.093Z,47.60
2018-09-25T10:21:13.901Z,48.80
2018-09-25T10:24:00.364Z,50.00
2018-09-25T10:26:46.148Z,49.70
2018-09-25T10:29:32.597Z,50.80
2018-09-25T10:32:18.781Z,51.60
2018-09-25T10:35:06.309Z,51.90
2018-09-25T10:37:52.390Z,52.50
2018-09-25T10:40:39.552Z,53.20
2018-09-25T10:43:26.633Z,51.90
2018-09-25T10:46:12.834Z,51.90
2018-09-25T10:48:59.960Z,52.50
2018-09-25T10:51:46.013Z,54.60
2018-09-25T10:54:33.185Z,54.50
2018-09-25T10:57:20.109Z,54.40
2018-09-25T11:00:06.670Z,53.30
2018-09-25T11:02:53.218Z,53.50
2018-09-25T11:05:38.898Z,53.90
2018-09-25T11:08:24.783Z,54.40
2018-09-25T11:11:11.511Z,55.80
2018-09-25T11:13:58.283Z,56.20
2018-09-25T11:16:44.894Z,56.80
2018-09-25T11:19:31.682Z,59.70
2018-09-25T11:22:17.649Z,60.50
2018-09-25T11:25:04.378Z,60.00
2018-09-25T11:27:51.203Z,60.70
2018-09-25T11:30:37.734Z,62.50
2018-09-25T11:33:24.283Z,60.60
2018-09-25T11:36:10.200Z,62.40
2018-09-25T11:38:57.048Z,62.00
2018-09-25T11:41:44.561Z,60.90
2018-09-25T11:44:30.797Z,61.10
2018-09-25T11:47:16.787Z,61.70
2018-09-25T11:50:03.746Z,59.80
2018-09-25T11:52:50.806Z,58.70
2018-09-25T11:55:36.969Z,57.90
2018-09-25T11:58:24.791Z,56.60
2018-09-25T12:01:11.396Z,55.50
2018-09-25T12:03:57.289Z,54.50
2018-09-25T12:06:44.115Z,53.80
2018-09-25T12:09:30.647Z,51.90
2018-09-25T12:12:17.472Z,52.60
2018-09-25T12:15:04.103Z,54.70
2018-09-25T12:17:51.045Z,54.30
2018-09-25T12:20:37.756Z,53.30
2018-09-25T12:23:24.200Z,52.30
2018-09-25T12:26:10.106Z,53.10
2018-09-25T12:28:57.241Z,52.70
2018-09-25T12:31:43.351Z,52.50
2018-09-25T12:34:29.321Z,52.60
2018-09-25T12:37:15.914Z,53.10
2018-09-25T12:40:02.585Z,52.50
2018-09-25T12:42:49.141Z,52.90
2018-09-25T12:45:35.846Z,53.10
2018-09-25T12:48:22.604Z,52.60
2018-09-25T12:51:09.334Z,53.70
2018-09-25T12:53:55.788Z,53.20
2018-09-25T12:56:42.818Z,53.00
2018-09-25T12:59:29.386Z,53.60
2018-09-25T13:02:16.171Z,54.30
2018-09-25T13:05:02.836Z,53.80
2018-09-25T13:07:49.638Z,54.30
2018-09-25T13:10:36.221Z,54.40
2018-09-25T13:13:23.181Z,55.00
2018-09-25T13:16:09.583Z,54.20
2018-09-25T13:18:56.407Z,54.30
2018-09-25T13:21:43.341Z,54.80
2018-09-25T13:24:30.023Z,55.40
2018-09-25T13:27:16.947Z,56.30
2018-09-25T13:30:03.532Z,56.10
2018-09-25T13:32:50.224Z,57.60
2018-09-25T13:35:36.900Z,58.40
2018-09-25T13:38:23.438Z,58.70
2018-09-25T13:41:09.928Z,58.70
2018-09-25T13:43:56.871Z,58.70
2018-09-25T13:46:44.251Z,60.70
2018-09-25T13:49:30.464Z,62.50
2018-09-25T13:52:16.871Z,62.30
2018-09-25T13:55:02.897Z,61.60
2018-09-25T13:57:49.079Z,61.70
2018-09-25T14:00:35.287Z,62.40
2018-09-25T14:03:21.610Z,65.10
2018-09-25T14:06:07.482Z,65.80
2018-09-25T14:08:53.868Z,65.60
2018-09-25T14:11:39.874Z,65.00
2018-09-25T14:14:27.191Z,66.70
2018-09-25T14:17:13.061Z,67.60
2018-09-25T14:19:58.887Z,67.70
2018-09-25T14:22:45.915Z,68.10
2018-09-25T14:25:33.204Z,67.90
2018-09-25T14:28:19.826Z,68.50
2018-09-25T14:31:06.229Z,69.00
2018-09-25T14:33:52.963Z,69.20
2018-09-25T14:36:39.760Z,70.40
2018-09-25T14:39:26.641Z,71.70
2018-09-25T14:42:13.461Z,70.70
2018-09-25T14:45:01.063Z,71.70
2018-09-25T14:47:47.985Z,71.90
2018-09-25T14:50:34.019Z,71.40
2018-09-25T14:53:20.214Z,72.80
2018-09-25T14:56:07.227Z,74.30
2018-09-25T14:58:53.683Z,73.80
2018-09-25T15:01:39.668Z,73.30
2018-09-25T15:04:26.587Z,73.70
2018-09-25T15:07:13.450Z,73.50
2018-09-25T15:09:59.980Z,74.30
2018-09-25T15:12:47.431Z,74.10
2018-09-25T15:15:33.829Z,74.60
2018-09-25T15:18:20.494Z,75.30
2018-09-25T15:21:06.811Z,76.50
2018-09-25T15:23:53.568Z,75.10
2018-09-25T15:26:40.546Z,75.50
2018-09-25T15:29:27.355Z,76.60
2018-09-25T15:32:14.123Z,73.40
2018-09-25T15:35:00.855Z,74.00
2018-09-25T15:37:47.679Z,74.10
2018-09-25T15:40:34.672Z,73.00
2018-09-25T15:43:21.256Z,74.20
2018-09-25T15:46:07.957Z,75.00
2018-09-25T15:48:54.675Z,72.50
2018-09-25T15:51:41.457Z,74.00
2018-09-25T15:54:28.278Z,74.70
2018-09-25T15:57:14.768Z,73.20
2018-09-25T16:00:02.605Z,73.10
2018-09-25T16:02:49.446Z,73.50
2018-09-25T16:05:35.971Z,74.90
2018-09-25T16:08:22.242Z,75.50
2018-09-25T16:14:15.968Z,75.80
2018-09-25T16:17:02.845Z,76.90
2018-09-25T16:19:49.512Z,76.70
2018-09-25T16:22:36.232Z,76.50
2018-09-25T16:25:22.908Z,77.00
2018-09-25T16:28:09.803Z,77.20
2018-09-25T16:30:57.091Z,77.60
2018-09-25T16:33:43.640Z,78.50
2018-09-25T16:36:31.331Z,78.10
2018-09-25T16:39:17.539Z,78.70
2018-09-25T16:42:04.245Z,79.70
2018-09-25T16:44:51.522Z,79.00
2018-09-25T16:47:37.779Z,79.70
2018-09-25T16:50:24.452Z,79.70
2018-09-25T16:53:11.462Z,79.80
2018-09-25T16:55:58.502Z,79.90
2018-09-25T16:58:44.902Z,80.50
2018-09-25T17:01:31.414Z,81.10
2018-09-25T17:04:18.504Z,81.00
2018-09-25T17:07:05.009Z,80.70
2018-09-25T17:09:52.126Z,81.20
2018-09-25T17:12:40.314Z,81.90
2018-09-25T17:15:26.774Z,82.10
2018-09-25T17:18:13.616Z,82.30
2018-09-25T17:21:00.533Z,82.90
2018-09-25T17:23:47.244Z,82.60
2018-09-25T17:26:33.607Z,82.40
2018-09-25T17:29:20.280Z,83.00
2018-09-25T17:32:06.431Z,83.20
2018-09-25T17:34:53.044Z,83.20
2018-09-25T17:37:40.271Z,82.70
2018-09-25T17:40:28.260Z,83.20
2018-09-25T17:43:14.617Z,84.10
2018-09-25T17:46:01.380Z,84.50
2018-09-25T17:48:47.948Z,84.20
2018-09-25T17:51:35.019Z,84.20
2018-09-25T17:54:21.715Z,84.90
2018-09-25T17:57:08.153Z,85.00
2018-09-25T17:59:54.943Z,85.50
2018-09-25T18:02:41.362Z,84.70
2018-09-25T18:05:27.927Z,84.70
2018-09-25T18:08:15.284Z,84.10
2018-09-25T18:11:01.254Z,84.50
2018-09-25T18:13:47.875Z,85.60
2018-09-25T18:16:34.515Z,85.30
2018-09-25T18:19:20.754Z,84.80
2018-09-25T18:22:08.467Z,84.90
2018-09-25T18:24:55.520Z,84.80
2018-09-25T18:27:42.129Z,84.80
2018-09-25T18:30:28.897Z,84.80
2018-09-25T18:33:15.562Z,84.20
2018-09-25T18:36:02.937Z,83.90
2018-09-25T18:38:49.053Z,84.30
2018-09-25T18:41:36.074Z,84.20
2018-09-25T18:44:22.164Z,83.70
2018-09-25T18:47:09.173Z,83.80
2018-09-25T18:49:56.504Z,82.70
2018-09-25T18:52:44.224Z,82.40
2018-09-25T18:55:30.641Z,82.00
2018-09-25T18:58:18.678Z,82.70
2018-09-25T19:01:04.759Z,82.80
2018-09-25T19:03:51.403Z,83.10
2018-09-25T19:06:38.082Z,82.40
2018-09-25T19:09:25.136Z,82.40
2018-09-25T19:12:11.633Z,81.70
2018-09-25T19:14:58.997Z,82.70
2018-09-25T19:17:45.126Z,81.80
2018-09-25T19:20:31.944Z,82.30
2018-09-25T19:23:18.858Z,82.10
2018-09-25T19:26:05.149Z,81.70
2018-09-25T19:28:52.119Z,81.80
2018-09-25T19:31:38.569Z,81.20
2018-09-25T19:34:25.428Z,80.30
2018-09-25T19:37:12.296Z,81.30
2018-09-25T19:39:58.992Z,80.60
2018-09-25T19:42:45.400Z,80.80
2018-09-25T19:45:32.785Z,80.10
2018-09-25T19:48:19.954Z,80.60
2018-09-25T19:51:06.334Z,80.80
2018-09-25T19:53:52.986Z,80.80
2018-09-25T19:56:40.193Z,80.70
2018-09-25T19:59:27.185Z,80.60
2018-09-25T20:02:13.991Z,80.60
2018-09-25T20:05:00.606Z,80.60
2018-09-25T20:07:47.072Z,80.90
2018-09-25T20:10:33.509Z,81.80
2018-09-25T20:13:20.040Z,82.30
2018-09-25T20:16:06.718Z,82.40
2018-09-25T20:18:54.460Z,81.60
2018-09-25T20:21:41.114Z,82.00
2018-09-25T20:24:28.048Z,81.90
2018-09-25T20:27:14.374Z,82.80
2018-09-25T20:30:00.977Z,82.30
2018-09-25T20:32:47.676Z,82.30
2018-09-25T20:35:34.703Z,81.40
2018-09-25T20:38:21.693Z,81.80
2018-09-25T20:41:08.130Z,82.30
2018-09-25T20:43:55.428Z,82.10
2018-09-25T20:46:42.821Z,83.00
2018-09-25T20:49:29.795Z,82.70
2018-09-25T20:52:16.700Z,82.90
2018-09-25T20:55:02.828Z,83.50
2018-09-25T20:57:49.005Z,82.70
2018-09-25T21:00:36.194Z,83.50
2018-09-25T21:03:22.813Z,83.70
2018-09-25T21:06:09.031Z,84.00
2018-09-25T21:08:55.922Z,84.10
2018-09-25T21:11:42.654Z,83.70
2018-09-25T21:14:29.307Z,84.20
2018-09-25T21:17:16.307Z,83.80
2018-09-25T21:20:02.762Z,84.20
2018-09-25T21:22:49.485Z,84.30
2018-09-25T21:25:36.640Z,83.90
2018-09-25T21:28:22.903Z,84.30
2018-09-25T21:31:10.433Z,84.50
2018-09-25T21:33:56.567Z,84.70
2018-09-25T21:36:43.441Z,85.20
2018-09-25T21:39:30.452Z,84.70
2018-09-25T21:42:17.233Z,85.30
2018-09-25T21:45:04.039Z,85.20
2018-09-25T21:47:50.763Z,85.40
2018-09-25T21:50:38.338Z,85.40
2018-09-25T21:53:24.504Z,85.10
2018-09-25T21:56:11.118Z,85.00
2018-09-25T21:58:57.834Z,85.70
2018-09-25T22:01:44.449Z,85.70
2018-09-25T22:04:31.119Z,85.80
2018-09-25T22:07:29.120Z,85.70
2018-09-25T22:10:20.713Z,85.50
2018-09-25T22:13:07.554Z,85.70
2018-09-25T22:15:53.619Z,85.60
2018-09-25T22:18:40.767Z,85.60
2018-09-25T22:21:27.282Z,85.40
2018-09-25T22:24:13.871Z,85.30
2018-09-25T22:27:06.135Z,85.50
2018-09-25T22:30:00.068Z,85.60
2018-09-25T22:32:47.006Z,84.90
2018-09-25T22:35:33.092Z,85.10
2018-09-25T22:38:21.071Z,85.40
2018-09-25T22:41:07.639Z,86.40
2018-09-25T22:43:54.529Z,85.60
2018-09-25T22:49:32.667Z,84.80
2018-09-25T22:52:19.568Z,84.90
2018-09-25T22:55:06.298Z,85.20
2018-09-25T22:57:52.798Z,85.50
2018-09-25T23:00:40.008Z,84.90
2018-09-25T23:03:26.385Z,84.90
2018-09-25T23:06:13.317Z,85.10
2018-09-25T23:08:59.919Z,84.90
2018-09-25T23:11:46.735Z,85.10
2018-09-25T23:14:33.489Z,84.90
2018-09-25T23:17:20.768Z,84.90
2018-09-25T23:20:07.209Z,84.50
2018-09-25T23:22:54.676Z,84.80
2018-09-25T23:25:40.991Z,84.50
2018-09-25T23:28:28.069Z,85.00
2018-09-25T23:31:14.319Z,84.40
2018-09-25T23:34:01.525Z,84.70
2018-09-25T23:36:49.020Z,85.50
2018-09-25T23:39:36.170Z,84.40
2018-09-25T23:42:25.898Z,83.90
2018-09-25T23:45:12.214Z,84.00
2018-09-25T23:48:00.293Z,84.30
2018-09-25T23:50:47.247Z,84.20
2018-09-25T23:53:35.465Z,84.70
2018-09-25T23:56:23.124Z,84.90
2018-09-25T23:59:11.713Z,85.10
